sensor_id;sensor_type;location;lat;lon;timestamp;P1;durP1;ratioP1;P2;durP2;ratioP2
59054;SDS011;44845;51.444;7.460;2022-10-16T00:00:56;5.88;;;1.80;;
59054;SDS011;44845;51.444;7.460;2022-10-16T00:03:22;5.47;;;1.80;;
59054;SDS011;44845;51.444;7.460;2022-10-16T00:05:47;6.88;;;1.80;;
59054;SDS011;44845;51.444;7.460;2022-10-16T00:08:12;4.38;;;1.63;;
59054;SDS011;44845;51.444;7.460;2022-10-16T00:10:38;2.30;;;1.50;;
59054;SDS011;44845;51.444;7.460;2022-10-16T00:13:04;5.68;;;2.13;;
59054;SDS011;44845;51.444;7.460;2022-10-16T00:15:32;5.53;;;1.67;;
59054;SDS011;44845;51.444;7.460;2022-10-16T00:18:01;5.68;;;1.83;;
59054;SDS011;44845;51.444;7.460;2022-10-16T00:20:26;4.60;;;1.40;;
59054;SDS011;44845;51.444;7.460;2022-10-16T00:22:51;4.07;;;1.60;;
59054;SDS011;44845;51.444;7.460;2022-10-16T00:25:17;2.17;;;1.45;;
59054;SDS011;44845;51.444;7.460;2022-10-16T00:27:42;5.28;;;1.45;;
59054;SDS011;44845;51.444;7.460;2022-10-16T00:30:07;3.75;;;1.38;;
59054;SDS011;44845;51.444;7.460;2022-10-16T00:32:33;3.03;;;1.33;;
59054;SDS011;44845;51.444;7.460;2022-10-16T00:34:58;2.78;;;1.48;;
59054;SDS011;44845;51.444;7.460;2022-10-16T00:37:24;2.47;;;1.58;;
59054;SDS011;44845;51.444;7.460;2022-10-16T00:39:50;2.80;;;1.63;;
59054;SDS011;44845;51.444;7.460;2022-10-16T00:42:16;3.35;;;1.58;;
59054;SDS011;44845;51.444;7.460;2022-10-16T00:47:37;2.58;;;1.60;;
59054;SDS011;44845;51.444;7.460;2022-10-16T00:50:20;3.22;;;1.30;;
59054;SDS011;44845;51.444;7.460;2022-10-16T00:52:51;5.53;;;1.20;;
59054;SDS011;44845;51.444;7.460;2022-10-16T00:55:17;2.55;;;1.30;;
59054;SDS011;44845;51.444;7.460;2022-10-16T00:57:43;4.60;;;1.17;;
59054;SDS011;44845;51.444;7.460;2022-10-16T01:00:11;3.42;;;1.58;;
59054;SDS011;44845;51.444;7.460;2022-10-16T01:02:38;2.80;;;1.30;;
59054;SDS011;44845;51.444;7.460;2022-10-16T01:05:04;2.90;;;1.35;;
59054;SDS011;44845;51.444;7.460;2022-10-16T01:07:34;5.18;;;1.58;;
59054;SDS011;44845;51.444;7.460;2022-10-16T01:15:34;5.05;;;1.30;;
59054;SDS011;44845;51.444;7.460;2022-10-16T01:20:48;4.90;;;1.08;;
59054;SDS011;44845;51.444;7.460;2022-10-16T01:31:37;2.05;;;0.80;;
59054;SDS011;44845;51.444;7.460;2022-10-16T01:34:06;5.20;;;1.20;;
59054;SDS011;44845;51.444;7.460;2022-10-16T01:39:08;2.42;;;1.17;;
59054;SDS011;44845;51.444;7.460;2022-10-16T01:41:43;2.67;;;1.08;;
59054;SDS011;44845;51.444;7.460;2022-10-16T01:44:22;6.40;;;1.10;;
59054;SDS011;44845;51.444;7.460;2022-10-16T01:46:53;2.80;;;1.15;;
59054;SDS011;44845;51.444;7.460;2022-10-16T01:49:20;9.75;;;1.17;;
59054;SDS011;44845;51.444;7.460;2022-10-16T01:51:48;4.00;;;1.48;;
59054;SDS011;44845;51.444;7.460;2022-10-16T01:54:17;4.43;;;1.27;;
59054;SDS011;44845;51.444;7.460;2022-10-16T01:56:45;5.22;;;1.58;;
59054;SDS011;44845;51.444;7.460;2022-10-16T01:59:14;2.55;;;1.13;;
59054;SDS011;44845;51.444;7.460;2022-10-16T02:01:47;1.92;;;1.30;;
59054;SDS011;44845;51.444;7.460;2022-10-16T02:04:24;1.60;;;0.80;;
59054;SDS011;44845;51.444;7.460;2022-10-16T02:07:10;6.25;;;1.02;;
59054;SDS011;44845;51.444;7.460;2022-10-16T02:09:36;0.90;;;0.90;;
59054;SDS011;44845;51.444;7.460;2022-10-16T02:12:10;3.17;;;1.10;;
59054;SDS011;44845;51.444;7.460;2022-10-16T02:14:40;5.28;;;1.30;;
59054;SDS011;44845;51.444;7.460;2022-10-16T02:17:11;3.03;;;0.77;;
59054;SDS011;44845;51.444;7.460;2022-10-16T02:22:06;4.15;;;1.10;;
59054;SDS011;44845;51.444;7.460;2022-10-16T02:24:38;2.88;;;1.35;;
59054;SDS011;44845;51.444;7.460;2022-10-16T02:30:44;2.17;;;1.00;;
59054;SDS011;44845;51.444;7.460;2022-10-16T02:33:19;5.25;;;0.80;;
59054;SDS011;44845;51.444;7.460;2022-10-16T02:35:47;3.03;;;1.00;;
59054;SDS011;44845;51.444;7.460;2022-10-16T02:38:15;1.17;;;0.98;;
59054;SDS011;44845;51.444;7.460;2022-10-16T02:40:42;3.25;;;0.90;;
59054;SDS011;44845;51.444;7.460;2022-10-16T02:43:08;4.72;;;1.10;;
59054;SDS011;44845;51.444;7.460;2022-10-16T02:45:34;3.65;;;1.10;;
59054;SDS011;44845;51.444;7.460;2022-10-16T02:48:00;3.80;;;0.60;;
59054;SDS011;44845;51.444;7.460;2022-10-16T02:50:25;1.95;;;1.00;;
59054;SDS011;44845;51.444;7.460;2022-10-16T02:52:51;2.13;;;0.80;;
59054;SDS011;44845;51.444;7.460;2022-10-16T02:55:16;2.88;;;0.80;;
59054;SDS011;44845;51.444;7.460;2022-10-16T02:57:42;1.27;;;0.88;;
59054;SDS011;44845;51.444;7.460;2022-10-16T03:00:09;1.90;;;0.93;;
59054;SDS011;44845;51.444;7.460;2022-10-16T03:02:36;3.65;;;0.80;;
59054;SDS011;44845;51.444;7.460;2022-10-16T03:05:01;4.22;;;1.10;;
59054;SDS011;44845;51.444;7.460;2022-10-16T03:07:27;3.45;;;0.73;;
59054;SDS011;44845;51.444;7.460;2022-10-16T03:09:52;10.15;;;0.65;;
59054;SDS011;44845;51.444;7.460;2022-10-16T03:12:18;5.07;;;0.77;;
59054;SDS011;44845;51.444;7.460;2022-10-16T03:14:43;2.47;;;0.73;;
59054;SDS011;44845;51.444;7.460;2022-10-16T03:17:08;2.03;;;0.70;;
59054;SDS011;44845;51.444;7.460;2022-10-16T03:19:34;4.32;;;0.70;;
59054;SDS011;44845;51.444;7.460;2022-10-16T03:22:00;0.80;;;0.60;;
59054;SDS011;44845;51.444;7.460;2022-10-16T03:24:26;3.90;;;0.70;;
59054;SDS011;44845;51.444;7.460;2022-10-16T03:26:51;1.38;;;0.70;;
59054;SDS011;44845;51.444;7.460;2022-10-16T03:29:16;4.03;;;0.73;;
59054;SDS011;44845;51.444;7.460;2022-10-16T03:31:42;4.05;;;0.70;;
59054;SDS011;44845;51.444;7.460;2022-10-16T03:34:07;5.43;;;0.70;;
59054;SDS011;44845;51.444;7.460;2022-10-16T03:36:33;7.82;;;0.80;;
59054;SDS011;44845;51.444;7.460;2022-10-16T03:38:58;3.00;;;0.52;;
59054;SDS011;44845;51.444;7.460;2022-10-16T03:41:23;1.92;;;0.63;;
59054;SDS011;44845;51.444;7.460;2022-10-16T03:43:49;4.35;;;0.60;;
59054;SDS011;44845;51.444;7.460;2022-10-16T03:46:14;3.90;;;0.60;;
59054;SDS011;44845;51.444;7.460;2022-10-16T03:48:39;1.25;;;0.50;;
59054;SDS011;44845;51.444;7.460;2022-10-16T03:51:05;4.32;;;0.70;;
59054;SDS011;44845;51.444;7.460;2022-10-16T03:53:30;1.25;;;0.50;;
59054;SDS011;44845;51.444;7.460;2022-10-16T03:55:55;4.35;;;0.65;;
59054;SDS011;44845;51.444;7.460;2022-10-16T03:58:21;2.60;;;0.50;;
59054;SDS011;44845;51.444;7.460;2022-10-16T04:00:46;1.90;;;0.68;;
59054;SDS011;44845;51.444;7.460;2022-10-16T04:03:15;1.45;;;0.70;;
59054;SDS011;44845;51.444;7.460;2022-10-16T04:05:40;6.13;;;0.60;;
59054;SDS011;44845;51.444;7.460;2022-10-16T04:08:05;1.73;;;0.60;;
59054;SDS011;44845;51.444;7.460;2022-10-16T04:10:31;5.10;;;0.60;;
59054;SDS011;44845;51.444;7.460;2022-10-16T04:12:57;1.85;;;0.50;;
59054;SDS011;44845;51.444;7.460;2022-10-16T04:15:23;4.28;;;1.75;;
59054;SDS011;44845;51.444;7.460;2022-10-16T04:17:48;3.05;;;0.90;;
59054;SDS011;44845;51.444;7.460;2022-10-16T04:20:14;2.20;;;0.70;;
59054;SDS011;44845;51.444;7.460;2022-10-16T04:22:39;1.10;;;0.95;;
59054;SDS011;44845;51.444;7.460;2022-10-16T04:25:05;6.18;;;0.80;;
59054;SDS011;44845;51.444;7.460;2022-10-16T04:27:31;1.42;;;0.80;;
59054;SDS011;44845;51.444;7.460;2022-10-16T04:29:57;4.28;;;0.65;;
59054;SDS011;44845;51.444;7.460;2022-10-16T04:32:22;2.28;;;0.50;;
59054;SDS011;44845;51.444;7.460;2022-10-16T04:34:48;4.25;;;0.60;;
59054;SDS011;44845;51.444;7.460;2022-10-16T04:37:13;2.05;;;0.90;;
59054;SDS011;44845;51.444;7.460;2022-10-16T04:39:39;5.97;;;0.60;;
59054;SDS011;44845;51.444;7.460;2022-10-16T04:42:04;2.60;;;0.80;;
59054;SDS011;44845;51.444;7.460;2022-10-16T04:44:29;6.82;;;0.88;;
59054;SDS011;44845;51.444;7.460;2022-10-16T04:46:55;2.00;;;0.73;;
59054;SDS011;44845;51.444;7.460;2022-10-16T04:49:20;5.78;;;0.68;;
59054;SDS011;44845;51.444;7.460;2022-10-16T04:51:45;1.13;;;0.50;;
59054;SDS011;44845;51.444;7.460;2022-10-16T04:54:11;3.92;;;0.60;;
59054;SDS011;44845;51.444;7.460;2022-10-16T04:56:36;3.38;;;0.98;;
59054;SDS011;44845;51.444;7.460;2022-10-16T04:59:08;3.50;;;0.95;;
59054;SDS011;44845;51.444;7.460;2022-10-16T05:01:34;3.92;;;0.73;;
59054;SDS011;44845;51.444;7.460;2022-10-16T05:03:59;1.25;;;0.60;;
59054;SDS011;44845;51.444;7.460;2022-10-16T05:06:24;5.15;;;0.73;;
59054;SDS011;44845;51.444;7.460;2022-10-16T05:08:50;11.43;;;1.00;;
59054;SDS011;44845;51.444;7.460;2022-10-16T05:11:15;1.20;;;0.60;;
59054;SDS011;44845;51.444;7.460;2022-10-16T05:13:40;2.55;;;0.75;;
59054;SDS011;44845;51.444;7.460;2022-10-16T05:16:06;2.28;;;0.60;;
59054;SDS011;44845;51.444;7.460;2022-10-16T05:18:31;3.20;;;0.60;;
59054;SDS011;44845;51.444;7.460;2022-10-16T05:20:56;2.28;;;0.45;;
59054;SDS011;44845;51.444;7.460;2022-10-16T05:23:22;3.15;;;0.52;;
59054;SDS011;44845;51.444;7.460;2022-10-16T05:25:54;0.80;;;0.47;;
59054;SDS011;44845;51.444;7.460;2022-10-16T05:28:20;4.85;;;0.60;;
59054;SDS011;44845;51.444;7.460;2022-10-16T05:30:46;2.80;;;0.93;;
59054;SDS011;44845;51.444;7.460;2022-10-16T05:33:11;3.40;;;0.60;;
59054;SDS011;44845;51.444;7.460;2022-10-16T05:35:37;1.92;;;0.40;;
59054;SDS011;44845;51.444;7.460;2022-10-16T05:38:02;5.45;;;0.63;;
59054;SDS011;44845;51.444;7.460;2022-10-16T05:40:27;0.77;;;0.70;;
59054;SDS011;44845;51.444;7.460;2022-10-16T05:42:56;4.22;;;0.60;;
59054;SDS011;44845;51.444;7.460;2022-10-16T05:45:21;1.05;;;0.80;;
59054;SDS011;44845;51.444;7.460;2022-10-16T05:47:46;2.03;;;0.63;;
59054;SDS011;44845;51.444;7.460;2022-10-16T05:50:12;0.50;;;0.50;;
59054;SDS011;44845;51.444;7.460;2022-10-16T05:52:37;1.35;;;0.63;;
59054;SDS011;44845;51.444;7.460;2022-10-16T05:55:03;3.28;;;0.68;;
59054;SDS011;44845;51.444;7.460;2022-10-16T05:57:28;5.88;;;1.30;;
59054;SDS011;44845;51.444;7.460;2022-10-16T05:59:54;3.53;;;1.00;;
59054;SDS011;44845;51.444;7.460;2022-10-16T06:02:20;5.13;;;1.83;;
59054;SDS011;44845;51.444;7.460;2022-10-16T06:04:45;2.00;;;0.90;;
59054;SDS011;44845;51.444;7.460;2022-10-16T06:07:10;2.30;;;0.80;;
59054;SDS011;44845;51.444;7.460;2022-10-16T06:09:36;1.85;;;0.70;;
59054;SDS011;44845;51.444;7.460;2022-10-16T06:12:01;3.70;;;0.80;;
59054;SDS011;44845;51.444;7.460;2022-10-16T06:14:27;2.33;;;0.88;;
59054;SDS011;44845;51.444;7.460;2022-10-16T06:16:52;1.00;;;0.57;;
59054;SDS011;44845;51.444;7.460;2022-10-16T06:19:17;4.43;;;0.68;;
59054;SDS011;44845;51.444;7.460;2022-10-16T06:21:43;1.23;;;0.50;;
59054;SDS011;44845;51.444;7.460;2022-10-16T06:24:09;1.77;;;0.60;;
59054;SDS011;44845;51.444;7.460;2022-10-16T06:26:34;1.48;;;0.60;;
59054;SDS011;44845;51.444;7.460;2022-10-16T06:29:00;2.25;;;0.40;;
59054;SDS011;44845;51.444;7.460;2022-10-16T06:31:26;3.65;;;0.77;;
59054;SDS011;44845;51.444;7.460;2022-10-16T06:33:55;0.80;;;0.60;;
59054;SDS011;44845;51.444;7.460;2022-10-16T06:36:21;1.85;;;0.55;;
59054;SDS011;44845;51.444;7.460;2022-10-16T06:38:47;6.15;;;0.68;;
59054;SDS011;44845;51.444;7.460;2022-10-16T06:41:13;1.55;;;0.65;;
59054;SDS011;44845;51.444;7.460;2022-10-16T06:43:40;2.00;;;0.70;;
59054;SDS011;44845;51.444;7.460;2022-10-16T06:46:06;3.00;;;0.63;;
59054;SDS011;44845;51.444;7.460;2022-10-16T06:48:35;1.85;;;1.10;;
59054;SDS011;44845;51.444;7.460;2022-10-16T06:51:05;3.75;;;1.08;;
59054;SDS011;44845;51.444;7.460;2022-10-16T06:53:31;2.13;;;0.98;;
59054;SDS011;44845;51.444;7.460;2022-10-16T06:56:06;0.85;;;0.75;;
59054;SDS011;44845;51.444;7.460;2022-10-16T06:58:32;2.30;;;0.68;;
59054;SDS011;44845;51.444;7.460;2022-10-16T07:00:57;3.25;;;0.85;;
59054;SDS011;44845;51.444;7.460;2022-10-16T07:03:22;1.90;;;0.75;;
59054;SDS011;44845;51.444;7.460;2022-10-16T07:05:48;2.85;;;0.70;;
59054;SDS011;44845;51.444;7.460;2022-10-16T07:08:13;2.42;;;0.95;;
59054;SDS011;44845;51.444;7.460;2022-10-16T07:10:38;1.75;;;0.90;;
59054;SDS011;44845;51.444;7.460;2022-10-16T07:13:04;2.33;;;0.90;;
59054;SDS011;44845;51.444;7.460;2022-10-16T07:15:29;4.63;;;0.88;;
59054;SDS011;44845;51.444;7.460;2022-10-16T07:17:54;3.75;;;0.63;;
59054;SDS011;44845;51.444;7.460;2022-10-16T07:20:20;2.47;;;0.50;;
59054;SDS011;44845;51.444;7.460;2022-10-16T07:22:45;6.63;;;1.00;;
59054;SDS011;44845;51.444;7.460;2022-10-16T07:25:11;4.00;;;1.02;;
59054;SDS011;44845;51.444;7.460;2022-10-16T07:27:36;2.38;;;0.60;;
59054;SDS011;44845;51.444;7.460;2022-10-16T07:30:02;3.13;;;0.75;;
59054;SDS011;44845;51.444;7.460;2022-10-16T07:32:27;4.70;;;0.77;;
59054;SDS011;44845;51.444;7.460;2022-10-16T07:34:53;2.55;;;0.70;;
59054;SDS011;44845;51.444;7.460;2022-10-16T07:37:20;1.13;;;0.70;;
59054;SDS011;44845;51.444;7.460;2022-10-16T07:39:46;1.83;;;1.00;;
59054;SDS011;44845;51.444;7.460;2022-10-16T07:42:11;3.95;;;0.93;;
59054;SDS011;44845;51.444;7.460;2022-10-16T07:44:36;2.03;;;0.90;;
59054;SDS011;44845;51.444;7.460;2022-10-16T07:47:02;2.35;;;0.90;;
59054;SDS011;44845;51.444;7.460;2022-10-16T07:49:27;3.70;;;0.90;;
59054;SDS011;44845;51.444;7.460;2022-10-16T07:51:53;1.27;;;0.85;;
59054;SDS011;44845;51.444;7.460;2022-10-16T07:54:18;5.55;;;1.60;;
59054;SDS011;44845;51.444;7.460;2022-10-16T07:56:43;4.13;;;1.70;;
59054;SDS011;44845;51.444;7.460;2022-10-16T07:59:09;2.30;;;1.50;;
59054;SDS011;44845;51.444;7.460;2022-10-16T08:01:34;1.27;;;1.00;;
59054;SDS011;44845;51.444;7.460;2022-10-16T08:04:00;3.65;;;0.90;;
59054;SDS011;44845;51.444;7.460;2022-10-16T08:06:25;2.63;;;0.70;;
59054;SDS011;44845;51.444;7.460;2022-10-16T08:08:50;6.10;;;0.90;;
59054;SDS011;44845;51.444;7.460;2022-10-16T08:11:16;5.10;;;0.93;;
59054;SDS011;44845;51.444;7.460;2022-10-16T08:13:41;1.42;;;0.75;;
59054;SDS011;44845;51.444;7.460;2022-10-16T08:16:07;3.20;;;0.90;;
59054;SDS011;44845;51.444;7.460;2022-10-16T08:18:35;2.10;;;0.82;;
59054;SDS011;44845;51.444;7.460;2022-10-16T08:21:01;1.40;;;1.30;;
59054;SDS011;44845;51.444;7.460;2022-10-16T08:23:27;3.67;;;1.42;;
59054;SDS011;44845;51.444;7.460;2022-10-16T08:25:53;6.35;;;1.40;;
59054;SDS011;44845;51.444;7.460;2022-10-16T08:28:19;2.13;;;0.88;;
59054;SDS011;44845;51.444;7.460;2022-10-16T08:30:45;1.23;;;0.70;;
59054;SDS011;44845;51.444;7.460;2022-10-16T08:33:10;2.85;;;0.90;;
59054;SDS011;44845;51.444;7.460;2022-10-16T08:35:36;3.92;;;0.98;;
59054;SDS011;44845;51.444;7.460;2022-10-16T08:38:04;1.13;;;0.70;;
59054;SDS011;44845;51.444;7.460;2022-10-16T08:40:31;3.22;;;0.90;;
59054;SDS011;44845;51.444;7.460;2022-10-16T08:50:35;3.78;;;0.77;;
59054;SDS011;44845;51.444;7.460;2022-10-16T08:53:03;6.80;;;1.00;;
59054;SDS011;44845;51.444;7.460;2022-10-16T08:57:59;6.75;;;0.70;;
59054;SDS011;44845;51.444;7.460;2022-10-16T09:00:24;3.95;;;0.95;;
59054;SDS011;44845;51.444;7.460;2022-10-16T09:02:52;2.70;;;0.80;;
59054;SDS011;44845;51.444;7.460;2022-10-16T09:10:33;4.53;;;0.60;;
59054;SDS011;44845;51.444;7.460;2022-10-16T09:13:27;3.75;;;0.70;;
59054;SDS011;44845;51.444;7.460;2022-10-16T09:16:01;3.85;;;1.08;;
59054;SDS011;44845;51.444;7.460;2022-10-16T09:23:45;3.38;;;0.60;;
59054;SDS011;44845;51.444;7.460;2022-10-16T09:26:13;1.13;;;0.60;;
59054;SDS011;44845;51.444;7.460;2022-10-16T09:28:40;2.75;;;0.80;;
59054;SDS011;44845;51.444;7.460;2022-10-16T09:31:05;1.15;;;0.50;;
59054;SDS011;44845;51.444;7.460;2022-10-16T09:33:35;2.05;;;0.70;;
59054;SDS011;44845;51.444;7.460;2022-10-16T09:36:04;1.90;;;0.60;;
59054;SDS011;44845;51.444;7.460;2022-10-16T09:38:31;3.15;;;0.55;;
59054;SDS011;44845;51.444;7.460;2022-10-16T09:40:59;4.00;;;0.65;;
59054;SDS011;44845;51.444;7.460;2022-10-16T09:43:27;4.07;;;0.60;;
59054;SDS011;44845;51.444;7.460;2022-10-16T09:46:07;2.45;;;0.65;;
59054;SDS011;44845;51.444;7.460;2022-10-16T09:51:00;2.55;;;0.68;;
59054;SDS011;44845;51.444;7.460;2022-10-16T09:53:42;1.70;;;0.50;;
59054;SDS011;44845;51.444;7.460;2022-10-16T09:56:10;3.42;;;0.55;;
59054;SDS011;44845;51.444;7.460;2022-10-16T09:58:41;1.00;;;0.50;;
59054;SDS011;44845;51.444;7.460;2022-10-16T10:01:11;3.55;;;0.68;;
59054;SDS011;44845;51.444;7.460;2022-10-16T10:03:40;2.38;;;0.50;;
59054;SDS011;44845;51.444;7.460;2022-10-16T10:06:26;3.45;;;0.55;;
59054;SDS011;44845;51.444;7.460;2022-10-16T10:09:04;2.67;;;0.50;;
59054;SDS011;44845;51.444;7.460;2022-10-16T10:11:37;8.68;;;0.60;;
59054;SDS011;44845;51.444;7.460;2022-10-16T10:14:05;3.97;;;0.60;;
59054;SDS011;44845;51.444;7.460;2022-10-16T10:16:31;1.08;;;0.40;;
59054;SDS011;44845;51.444;7.460;2022-10-16T10:18:59;1.30;;;0.50;;
59054;SDS011;44845;51.444;7.460;2022-10-16T10:21:25;2.05;;;0.40;;
59054;SDS011;44845;51.444;7.460;2022-10-16T10:23:57;4.05;;;0.60;;
59054;SDS011;44845;51.444;7.460;2022-10-16T10:26:23;7.78;;;0.70;;
59054;SDS011;44845;51.444;7.460;2022-10-16T10:29:02;1.08;;;0.50;;
59054;SDS011;44845;51.444;7.460;2022-10-16T10:34:32;2.08;;;0.57;;
59054;SDS011;44845;51.444;7.460;2022-10-16T10:37:24;3.58;;;0.68;;
59054;SDS011;44845;51.444;7.460;2022-10-16T10:42:42;4.40;;;0.65;;
59054;SDS011;44845;51.444;7.460;2022-10-16T10:45:41;1.80;;;0.43;;
59054;SDS011;44845;51.444;7.460;2022-10-16T10:51:15;5.35;;;0.70;;
59054;SDS011;44845;51.444;7.460;2022-10-16T10:53:51;5.00;;;0.85;;
59054;SDS011;44845;51.444;7.460;2022-10-16T11:02:35;7.50;;;0.70;;
59054;SDS011;44845;51.444;7.460;2022-10-16T11:08:15;1.88;;;0.52;;
59054;SDS011;44845;51.444;7.460;2022-10-16T11:13:34;1.60;;;0.53;;
59054;SDS011;44845;51.444;7.460;2022-10-16T11:16:15;6.65;;;0.52;;
59054;SDS011;44845;51.444;7.460;2022-10-16T11:18:48;5.18;;;0.65;;
59054;SDS011;44845;51.444;7.460;2022-10-16T11:21:23;2.88;;;0.60;;
59054;SDS011;44845;51.444;7.460;2022-10-16T11:23:57;3.85;;;0.70;;
59054;SDS011;44845;51.444;7.460;2022-10-16T11:26:30;2.17;;;0.60;;
59054;SDS011;44845;51.444;7.460;2022-10-16T11:28:59;3.40;;;0.50;;
59054;SDS011;44845;51.444;7.460;2022-10-16T11:39:21;6.97;;;0.60;;
59054;SDS011;44845;51.444;7.460;2022-10-16T11:44:38;4.00;;;0.30;;
59054;SDS011;44845;51.444;7.460;2022-10-16T11:50:25;3.20;;;0.80;;
59054;SDS011;44845;51.444;7.460;2022-10-16T11:55:24;2.13;;;0.65;;
59054;SDS011;44845;51.444;7.460;2022-10-16T11:58:44;2.97;;;0.70;;
59054;SDS011;44845;51.444;7.460;2022-10-16T12:04:04;3.40;;;0.40;;
59054;SDS011;44845;51.444;7.460;2022-10-16T12:09:27;2.75;;;0.40;;
59054;SDS011;44845;51.444;7.460;2022-10-16T12:11:55;1.13;;;0.50;;
59054;SDS011;44845;51.444;7.460;2022-10-16T12:14:32;3.63;;;0.40;;
59054;SDS011;44845;51.444;7.460;2022-10-16T12:17:00;2.75;;;0.40;;
59054;SDS011;44845;51.444;7.460;2022-10-16T12:19:57;1.17;;;0.43;;
59054;SDS011;44845;51.444;7.460;2022-10-16T12:22:24;2.33;;;0.40;;
59054;SDS011;44845;51.444;7.460;2022-10-16T12:24:53;4.60;;;0.50;;
59054;SDS011;44845;51.444;7.460;2022-10-16T12:27:27;1.92;;;0.30;;
59054;SDS011;44845;51.444;7.460;2022-10-16T12:30:00;6.03;;;0.40;;
59054;SDS011;44845;51.444;7.460;2022-10-16T12:32:31;6.95;;;0.73;;
59054;SDS011;44845;51.444;7.460;2022-10-16T12:34:59;6.35;;;0.50;;
59054;SDS011;44845;51.444;7.460;2022-10-16T12:37:27;1.27;;;0.50;;
59054;SDS011;44845;51.444;7.460;2022-10-16T12:39:58;5.13;;;0.85;;
59054;SDS011;44845;51.444;7.460;2022-10-16T12:44:53;6.15;;;0.90;;
59054;SDS011;44845;51.444;7.460;2022-10-16T12:47:23;3.42;;;0.80;;
59054;SDS011;44845;51.444;7.460;2022-10-16T12:50:01;3.08;;;0.77;;
59054;SDS011;44845;51.444;7.460;2022-10-16T12:52:28;4.28;;;0.50;;
59054;SDS011;44845;51.444;7.460;2022-10-16T12:55:01;2.65;;;0.50;;
59054;SDS011;44845;51.444;7.460;2022-10-16T13:08:57;4.75;;;1.20;;
59054;SDS011;44845;51.444;7.460;2022-10-16T13:11:57;7.28;;;0.90;;
59054;SDS011;44845;51.444;7.460;2022-10-16T13:25:28;6.82;;;0.80;;
59054;SDS011;44845;51.444;7.460;2022-10-16T13:28:04;2.22;;;0.73;;
59054;SDS011;44845;51.444;7.460;2022-10-16T13:30:37;2.72;;;0.45;;
59054;SDS011;44845;51.444;7.460;2022-10-16T13:33:07;4.03;;;0.90;;
59054;SDS011;44845;51.444;7.460;2022-10-16T13:35:47;3.55;;;0.80;;
59054;SDS011;44845;51.444;7.460;2022-10-16T13:38:18;5.57;;;0.85;;
59054;SDS011;44845;51.444;7.460;2022-10-16T13:40:49;4.70;;;0.95;;
59054;SDS011;44845;51.444;7.460;2022-10-16T13:43:19;2.30;;;0.88;;
59054;SDS011;44845;51.444;7.460;2022-10-16T13:46:07;5.00;;;0.68;;
59054;SDS011;44845;51.444;7.460;2022-10-16T13:48:39;3.90;;;0.70;;
59054;SDS011;44845;51.444;7.460;2022-10-16T13:51:06;2.38;;;0.55;;
59054;SDS011;44845;51.444;7.460;2022-10-16T13:53:38;1.02;;;0.40;;
59054;SDS011;44845;51.444;7.460;2022-10-16T13:56:05;4.78;;;0.60;;
59054;SDS011;44845;51.444;7.460;2022-10-16T13:58:32;4.22;;;0.73;;
59054;SDS011;44845;51.444;7.460;2022-10-16T14:01:05;2.03;;;0.43;;
59054;SDS011;44845;51.444;7.460;2022-10-16T14:03:41;3.00;;;0.60;;
59054;SDS011;44845;51.444;7.460;2022-10-16T14:06:11;2.25;;;0.40;;
59054;SDS011;44845;51.444;7.460;2022-10-16T14:08:42;3.23;;;0.53;;
59054;SDS011;44845;51.444;7.460;2022-10-16T14:11:09;3.63;;;1.08;;
59054;SDS011;44845;51.444;7.460;2022-10-16T14:13:38;3.10;;;0.57;;
59054;SDS011;44845;51.444;7.460;2022-10-16T14:16:15;1.27;;;0.60;;
59054;SDS011;44845;51.444;7.460;2022-10-16T14:18:44;3.92;;;0.50;;
59054;SDS011;44845;51.444;7.460;2022-10-16T14:21:15;3.33;;;0.43;;
59054;SDS011;44845;51.444;7.460;2022-10-16T14:23:42;3.55;;;0.57;;
59054;SDS011;44845;51.444;7.460;2022-10-16T14:28:33;2.47;;;0.50;;
59054;SDS011;44845;51.444;7.460;2022-10-16T14:31:00;2.10;;;0.60;;
59054;SDS011;44845;51.444;7.460;2022-10-16T14:41:14;6.27;;;0.80;;
59054;SDS011;44845;51.444;7.460;2022-10-16T14:43:41;3.85;;;0.52;;
59054;SDS011;44845;51.444;7.460;2022-10-16T14:46:17;1.88;;;0.52;;
59054;SDS011;44845;51.444;7.460;2022-10-16T14:48:51;3.92;;;0.65;;
59054;SDS011;44845;51.444;7.460;2022-10-16T14:51:21;7.40;;;0.60;;
59054;SDS011;44845;51.444;7.460;2022-10-16T14:53:47;3.47;;;0.98;;
59054;SDS011;44845;51.444;7.460;2022-10-16T14:56:17;2.28;;;0.60;;
59054;SDS011;44845;51.444;7.460;2022-10-16T14:58:44;2.00;;;0.60;;
59054;SDS011;44845;51.444;7.460;2022-10-16T15:01:10;0.47;;;0.30;;
59054;SDS011;44845;51.444;7.460;2022-10-16T15:03:36;1.92;;;0.55;;
59054;SDS011;44845;51.444;7.460;2022-10-16T15:06:02;0.98;;;0.50;;
59054;SDS011;44845;51.444;7.460;2022-10-16T15:08:27;2.10;;;0.60;;
59054;SDS011;44845;51.444;7.460;2022-10-16T15:10:53;6.25;;;0.60;;
59054;SDS011;44845;51.444;7.460;2022-10-16T15:13:18;4.65;;;0.70;;
59054;SDS011;44845;51.444;7.460;2022-10-16T15:15:44;6.57;;;0.60;;
59054;SDS011;44845;51.444;7.460;2022-10-16T15:18:11;3.70;;;0.52;;
59054;SDS011;44845;51.444;7.460;2022-10-16T15:20:39;1.15;;;0.50;;
59054;SDS011;44845;51.444;7.460;2022-10-16T15:23:06;4.30;;;0.50;;
59054;SDS011;44845;51.444;7.460;2022-10-16T15:25:40;3.10;;;0.80;;
59054;SDS011;44845;51.444;7.460;2022-10-16T15:28:11;1.23;;;0.50;;
59054;SDS011;44845;51.444;7.460;2022-10-16T15:30:37;2.47;;;0.60;;
59054;SDS011;44845;51.444;7.460;2022-10-16T15:33:03;2.10;;;0.50;;
59054;SDS011;44845;51.444;7.460;2022-10-16T15:35:30;2.08;;;0.70;;
59054;SDS011;44845;51.444;7.460;2022-10-16T15:37:56;3.70;;;0.70;;
59054;SDS011;44845;51.444;7.460;2022-10-16T15:40:22;1.38;;;0.73;;
59054;SDS011;44845;51.444;7.460;2022-10-16T15:42:48;1.55;;;0.57;;
59054;SDS011;44845;51.444;7.460;2022-10-16T15:45:14;3.30;;;0.75;;
59054;SDS011;44845;51.444;7.460;2022-10-16T15:47:40;1.92;;;0.68;;
59054;SDS011;44845;51.444;7.460;2022-10-16T15:50:08;9.23;;;0.70;;
59054;SDS011;44845;51.444;7.460;2022-10-16T15:52:34;3.55;;;0.70;;
59054;SDS011;44845;51.444;7.460;2022-10-16T15:55:00;6.13;;;0.73;;
59054;SDS011;44845;51.444;7.460;2022-10-16T15:57:27;5.40;;;0.60;;
59054;SDS011;44845;51.444;7.460;2022-10-16T15:59:53;2.00;;;0.52;;
59054;SDS011;44845;51.444;7.460;2022-10-16T16:02:19;4.72;;;0.68;;
59054;SDS011;44845;51.444;7.460;2022-10-16T16:04:44;4.78;;;0.90;;
59054;SDS011;44845;51.444;7.460;2022-10-16T16:07:10;2.58;;;0.65;;
59054;SDS011;44845;51.444;7.460;2022-10-16T16:09:35;3.97;;;0.52;;
59054;SDS011;44845;51.444;7.460;2022-10-16T16:12:01;4.10;;;0.63;;
59054;SDS011;44845;51.444;7.460;2022-10-16T16:14:26;5.65;;;0.50;;
59054;SDS011;44845;51.444;7.460;2022-10-16T16:16:53;2.08;;;0.57;;
59054;SDS011;44845;51.444;7.460;2022-10-16T16:19:19;4.50;;;0.60;;
59054;SDS011;44845;51.444;7.460;2022-10-16T16:21:46;2.38;;;0.52;;
59054;SDS011;44845;51.444;7.460;2022-10-16T16:24:11;4.10;;;0.90;;
59054;SDS011;44845;51.444;7.460;2022-10-16T16:26:37;1.83;;;1.00;;
59054;SDS011;44845;51.444;7.460;2022-10-16T16:29:04;6.13;;;1.13;;
59054;SDS011;44845;51.444;7.460;2022-10-16T16:31:30;2.85;;;1.20;;
59054;SDS011;44845;51.444;7.460;2022-10-16T16:33:57;5.18;;;1.13;;
59054;SDS011;44845;51.444;7.460;2022-10-16T16:36:23;2.90;;;0.98;;
59054;SDS011;44845;51.444;7.460;2022-10-16T16:38:50;2.80;;;0.70;;
59054;SDS011;44845;51.444;7.460;2022-10-16T16:41:16;8.00;;;0.73;;
59054;SDS011;44845;51.444;7.460;2022-10-16T16:43:43;6.88;;;0.75;;
59054;SDS011;44845;51.444;7.460;2022-10-16T16:46:09;8.18;;;0.77;;
59054;SDS011;44845;51.444;7.460;2022-10-16T16:48:36;3.60;;;0.68;;
59054;SDS011;44845;51.444;7.460;2022-10-16T16:51:03;7.10;;;0.60;;
59054;SDS011;44845;51.444;7.460;2022-10-16T16:53:29;1.48;;;0.70;;
59054;SDS011;44845;51.444;7.460;2022-10-16T16:55:54;5.78;;;0.60;;
59054;SDS011;44845;51.444;7.460;2022-10-16T16:58:20;5.40;;;0.70;;
59054;SDS011;44845;51.444;7.460;2022-10-16T17:00:45;7.78;;;0.93;;
59054;SDS011;44845;51.444;7.460;2022-10-16T17:03:12;3.75;;;0.80;;